Welcome to Des Moines Iowa Weather. I am an independent private personal weather station on the Northwest Side of Des Moines, Iowa. Just East of Windsor Heights and just West of Glendale . This site is also mobile friendly.

There are no active watches, warnings or advisories


Visit our other weather sites:

Historical Data

Weather Station Setup



Weather Underground History page Text

Daily Summary for February 28, 2018 Units:  English    Metric   Both
« Previous Day
Next Day »
Daily Weekly Monthly Yearly Custom
  High: Low: Average:
Temperature: 52.5 °F 34.5 °F 41.8 °F
Dew Point: 45.0 °F 30.0 °F 37.2 °F
Humidity: 89 % 74 % 84 %
Wind Speed: 6.0 mph 0.0 mph 1.7 mph
Wind Gust: 14.0 mph - -
Wind:- - SW
Pressure: 29.91 in 29.77 in -
Precipitation: 0.00 in    
Historical Graphs
 
 
Tabular Data for February 28, 2018
Time Temperature Dew Point Pressure Wind Wind Speed Wind Gust Humidity Rainfall Rate (Hourly)
00:00 42.4 °F 38.8 °F 29.83 in Calm   2.0 mph 87 % 0.00 in
00:05 42.4 °F 38.8 °F 29.83 in Calm   2.0 mph 87 % 0.00 in
00:10 42.7 °F 38.8 °F 29.83 in NNW 1.0 mph 3.0 mph 86 % 0.00 in
00:13 42.8 °F 39.0 °F 29.83 in NW 2.0 mph 4.0 mph 86 % 0.00 in
00:15 42.7 °F 38.8 °F 29.83 in NNW 1.0 mph 3.0 mph 86 % 0.00 in
00:20 42.7 °F 38.8 °F 29.83 in NNW 1.0 mph 3.0 mph 86 % 0.00 in
00:25 42.8 °F 38.9 °F 29.83 in NW 1.0 mph 4.0 mph 86 % 0.00 in
00:28 42.8 °F 39.0 °F 29.82 in Calm   3.0 mph 85 % 0.00 in
00:30 42.8 °F 38.9 °F 29.83 in NW 1.0 mph 4.0 mph 86 % 0.00 in
00:35 42.8 °F 38.9 °F 29.83 in NW 1.0 mph 4.0 mph 86 % 0.00 in
00:40 42.8 °F 38.6 °F 29.83 in North 1.0 mph 4.0 mph 85 % 0.00 in
00:43 42.7 °F 38.0 °F 29.83 in North 2.0 mph 3.0 mph 84 % 0.00 in
00:45 42.8 °F 38.6 °F 29.83 in North 1.0 mph 4.0 mph 85 % 0.00 in
00:50 42.8 °F 38.6 °F 29.83 in North 1.0 mph 4.0 mph 85 % 0.00 in
00:55 42.7 °F 38.2 °F 29.83 in Calm   3.0 mph 84 % 0.00 in
00:59 42.5 °F 38.0 °F 29.83 in Calm   4.0 mph 84 % 0.00 in
01:00 42.7 °F 38.2 °F 29.83 in Calm   3.0 mph 84 % 0.00 in
01:05 42.7 °F 38.2 °F 29.83 in Calm   3.0 mph 84 % 0.00 in
01:10 42.5 °F 38.0 °F 29.83 in NW 1.0 mph 4.0 mph 84 % 0.00 in
01:14 42.2 °F 38.0 °F 29.83 in NW 1.0 mph 6.0 mph 84 % 0.00 in
01:15 42.5 °F 38.0 °F 29.83 in NW 1.0 mph 4.0 mph 84 % 0.00 in
01:20 42.5 °F 38.0 °F 29.83 in NW 1.0 mph 4.0 mph 84 % 0.00 in
01:25 42.1 °F 37.6 °F 29.83 in NW 1.0 mph 6.0 mph 84 % 0.00 in
01:29 41.6 °F 37.0 °F 29.82 in Calm   5.0 mph 84 % 0.00 in
01:30 42.1 °F 37.6 °F 29.83 in NW 1.0 mph 6.0 mph 84 % 0.00 in
01:35 42.1 °F 37.6 °F 29.83 in NW 1.0 mph 6.0 mph 84 % 0.00 in
01:40 41.6 °F 37.1 °F 29.83 in North 2.0 mph 5.0 mph 84 % 0.00 in
01:44 41.2 °F 37.0 °F 29.83 in Calm   5.0 mph 85 % 0.00 in
01:45 41.6 °F 37.1 °F 29.83 in North 2.0 mph 5.0 mph 84 % 0.00 in
01:50 41.6 °F 37.1 °F 29.83 in North 2.0 mph 5.0 mph 84 % 0.00 in
01:55 41.2 °F 37.0 °F 29.83 in WNW 1.0 mph 5.0 mph 85 % 0.00 in
01:59 40.9 °F 37.0 °F 29.84 in NW 1.0 mph 3.0 mph 86 % 0.00 in
02:00 41.2 °F 37.0 °F 29.83 in WNW 1.0 mph 5.0 mph 85 % 0.00 in
02:05 41.2 °F 37.0 °F 29.83 in WNW 1.0 mph 5.0 mph 85 % 0.00 in
02:10 40.9 °F 37.0 °F 29.84 in NW 1.0 mph 3.0 mph 86 % 0.00 in
02:14 40.7 °F 37.0 °F 29.84 in Calm   3.0 mph 86 % 0.00 in
02:15 40.9 °F 37.0 °F 29.84 in NW 1.0 mph 3.0 mph 86 % 0.00 in
02:20 40.9 °F 37.0 °F 29.84 in NW 1.0 mph 3.0 mph 86 % 0.00 in
02:25 40.7 °F 36.8 °F 29.84 in Calm   3.0 mph 86 % 0.00 in
02:29 40.5 °F 37.0 °F 29.83 in Calm   3.0 mph 86 % 0.00 in
02:30 40.7 °F 36.8 °F 29.84 in Calm   3.0 mph 86 % 0.00 in
02:35 40.7 °F 36.8 °F 29.84 in Calm   3.0 mph 86 % 0.00 in
02:40 40.5 °F 36.6 °F 29.83 in Calm   3.0 mph 86 % 0.00 in
02:44 40.4 °F 37.0 °F 29.82 in NW 1.0 mph 4.0 mph 87 % 0.00 in
02:45 40.5 °F 36.6 °F 29.83 in Calm   3.0 mph 86 % 0.00 in
02:50 40.5 °F 36.6 °F 29.83 in Calm   3.0 mph 86 % 0.00 in
02:55 40.4 °F 36.8 °F 29.83 in NW 1.0 mph 4.0 mph 87 % 0.00 in
02:59 40.2 °F 37.0 °F 29.82 in NW 1.0 mph 3.0 mph 87 % 0.00 in
03:00 40.4 °F 36.8 °F 29.83 in NW 1.0 mph 4.0 mph 87 % 0.00 in
03:05 40.4 °F 36.8 °F 29.83 in NW 1.0 mph 4.0 mph 87 % 0.00 in
03:10 40.2 °F 36.6 °F 29.82 in Calm   3.0 mph 87 % 0.00 in
03:14 40.1 °F 37.0 °F 29.81 in Calm   1.0 mph 87 % 0.00 in
03:15 40.2 °F 36.6 °F 29.82 in Calm   3.0 mph 87 % 0.00 in
03:20 40.2 °F 36.6 °F 29.82 in Calm   3.0 mph 87 % 0.00 in
03:25 40.1 °F 36.5 °F 29.82 in Calm   2.0 mph 87 % 0.00 in
03:29 40.0 °F 37.0 °F 29.80 in Calm     87 % 0.00 in
03:30 40.1 °F 36.5 °F 29.82 in Calm   2.0 mph 87 % 0.00 in
03:35 40.1 °F 36.5 °F 29.82 in Calm   2.0 mph 87 % 0.00 in
03:40 40.0 °F 36.7 °F 29.81 in Calm     88 % 0.00 in
03:45 40.0 °F 37.0 °F 29.81 in Calm   1.0 mph 88 % 0.00 in
03:50 40.0 °F 36.7 °F 29.81 in Calm     88 % 0.00 in
03:55 40.0 °F 36.7 °F 29.81 in Calm   1.0 mph 88 % 0.00 in
03:59 40.0 °F 37.0 °F 29.80 in Calm   3.0 mph 88 % 0.00 in
04:00 40.0 °F 36.7 °F 29.81 in Calm   1.0 mph 88 % 0.00 in
04:05 40.0 °F 36.7 °F 29.81 in Calm   1.0 mph 88 % 0.00 in
04:10 39.9 °F 36.6 °F 29.80 in Calm   3.0 mph 88 % 0.00 in
04:14 39.9 °F 37.0 °F 29.81 in Calm     88 % 0.00 in
04:15 39.9 °F 36.6 °F 29.80 in Calm   3.0 mph 88 % 0.00 in
04:20 39.9 °F 36.6 °F 29.80 in Calm   3.0 mph 88 % 0.00 in
04:25 39.9 °F 36.6 °F 29.81 in Calm     88 % 0.00 in
04:29 39.9 °F 37.0 °F 29.80 in Calm     88 % 0.00 in
04:30 39.9 °F 36.6 °F 29.81 in Calm     88 % 0.00 in
04:35 39.9 °F 36.6 °F 29.81 in Calm     88 % 0.00 in
04:40 39.9 °F 36.6 °F 29.81 in Calm     88 % 0.00 in
04:44 39.8 °F 37.0 °F 29.79 in Calm     88 % 0.00 in
04:45 39.9 °F 36.6 °F 29.81 in Calm     88 % 0.00 in
04:50 39.9 °F 36.6 °F 29.81 in Calm     88 % 0.00 in
04:55 39.8 °F 36.5 °F 29.79 in Calm     88 % 0.00 in
04:59 39.6 °F 36.0 °F 29.80 in Calm     87 % 0.00 in
05:00 39.8 °F 36.5 °F 29.79 in Calm     88 % 0.00 in
05:05 39.8 °F 36.5 °F 29.79 in Calm     88 % 0.00 in
05:10 39.6 °F 36.0 °F 29.80 in Calm     87 % 0.00 in
05:14 39.3 °F 36.0 °F 29.81 in Calm     88 % 0.00 in
05:15 39.6 °F 36.0 °F 29.80 in Calm     87 % 0.00 in
05:20 39.6 °F 36.0 °F 29.80 in Calm     87 % 0.00 in
05:25 39.3 °F 36.0 °F 29.81 in Calm     88 % 0.00 in
05:29 39.1 °F 36.0 °F 29.81 in Calm   3.0 mph 88 % 0.00 in
05:30 39.3 °F 36.0 °F 29.81 in Calm     88 % 0.00 in
05:35 39.3 °F 36.0 °F 29.81 in Calm     88 % 0.00 in
05:40 39.1 °F 35.8 °F 29.81 in Calm   3.0 mph 88 % 0.00 in
05:44 38.9 °F 36.0 °F 29.81 in Calm   3.0 mph 88 % 0.00 in
05:45 39.1 °F 35.8 °F 29.81 in Calm   3.0 mph 88 % 0.00 in
05:50 39.1 °F 35.8 °F 29.81 in Calm   3.0 mph 88 % 0.00 in
05:55 38.9 °F 35.7 °F 29.81 in NW 1.0 mph 3.0 mph 88 % 0.00 in
05:59 38.6 °F 35.0 °F 29.80 in Calm   2.0 mph 88 % 0.00 in
06:00 38.9 °F 35.7 °F 29.81 in NW 1.0 mph 3.0 mph 88 % 0.00 in
06:05 38.9 °F 35.7 °F 29.81 in NW 1.0 mph 3.0 mph 88 % 0.00 in
06:10 38.6 °F 35.4 °F 29.81 in Calm   4.0 mph 88 % 0.00 in
06:14 38.1 °F 35.0 °F 29.82 in Calm   4.0 mph 88 % 0.00 in
06:15 38.6 °F 35.4 °F 29.81 in Calm   4.0 mph 88 % 0.00 in
06:20 38.6 °F 35.4 °F 29.81 in Calm   4.0 mph 88 % 0.00 in
06:25 38.1 °F 34.9 °F 29.82 in NW 1.0 mph 5.0 mph 88 % 0.00 in
06:29 37.6 °F 34.0 °F 29.83 in Calm   4.0 mph 88 % 0.00 in
06:30 38.1 °F 34.9 °F 29.82 in NW 1.0 mph 5.0 mph 88 % 0.00 in
06:35 38.1 °F 34.9 °F 29.82 in NW 1.0 mph 5.0 mph 88 % 0.00 in
06:40 37.6 °F 34.4 °F 29.83 in NW 1.0 mph 4.0 mph 88 % 0.00 in
06:44 37.3 °F 34.0 °F 29.82 in Calm   3.0 mph 88 % 0.00 in
06:45 37.6 °F 34.4 °F 29.83 in NW 1.0 mph 4.0 mph 88 % 0.00 in
06:50 37.6 °F 34.4 °F 29.83 in NW 1.0 mph 4.0 mph 88 % 0.00 in
06:55 37.3 °F 34.1 °F 29.82 in NW 1.0 mph 3.0 mph 88 % 0.00 in
06:59 36.9 °F 34.0 °F 29.82 in Calm   2.0 mph 88 % 0.00 in
07:00 37.3 °F 34.1 °F 29.82 in NW 1.0 mph 3.0 mph 88 % 0.00 in
07:05 37.3 °F 34.1 °F 29.82 in NW 1.0 mph 3.0 mph 88 % 0.00 in
07:10 36.9 °F 33.7 °F 29.83 in Calm   3.0 mph 88 % 0.00 in
07:14 36.8 °F 34.0 °F 29.83 in Calm   3.0 mph 88 % 0.00 in
07:15 36.9 °F 33.7 °F 29.83 in Calm   3.0 mph 88 % 0.00 in
07:20 36.9 °F 33.7 °F 29.83 in Calm   3.0 mph 88 % 0.00 in
07:25 36.7 °F 33.5 °F 29.83 in Calm   3.0 mph 88 % 0.00 in
07:30 36.6 °F 34.0 °F 29.83 in Calm   4.0 mph 89 % 0.00 in
07:35 36.7 °F 33.5 °F 29.83 in Calm   3.0 mph 88 % 0.00 in
07:40 36.6 °F 33.7 °F 29.83 in Calm   4.0 mph 89 % 0.00 in
07:44 36.4 °F 33.0 °F 29.83 in Calm   4.0 mph 88 % 0.00 in
07:45 36.6 °F 33.7 °F 29.83 in Calm   4.0 mph 89 % 0.00 in
07:50 36.6 °F 33.7 °F 29.83 in Calm   4.0 mph 89 % 0.00 in
07:55 36.4 °F 33.2 °F 29.83 in NW 1.0 mph 4.0 mph 88 % 0.00 in
07:59 36.4 °F 33.0 °F 29.82 in North 4.0 mph 6.0 mph 88 % 0.00 in
08:00 36.4 °F 33.2 °F 29.83 in NW 1.0 mph 4.0 mph 88 % 0.00 in
08:05 36.4 °F 33.2 °F 29.83 in NW 1.0 mph 4.0 mph 88 % 0.00 in
08:10 36.4 °F 33.2 °F 29.83 in NW 1.0 mph 6.0 mph 88 % 0.00 in
08:14 36.5 °F 33.0 °F 29.83 in North 2.0 mph 3.0 mph 88 % 0.00 in
08:15 36.4 °F 33.2 °F 29.83 in NW 1.0 mph 6.0 mph 88 % 0.00 in
08:20 36.4 °F 33.2 °F 29.83 in NW 1.0 mph 6.0 mph 88 % 0.00 in
08:25 36.5 °F 33.3 °F 29.83 in North 1.0 mph 6.0 mph 88 % 0.00 in
08:29 36.6 °F 33.0 °F 29.82 in North 1.0 mph 5.0 mph 88 % 0.00 in
08:30 36.5 °F 33.3 °F 29.83 in North 1.0 mph 6.0 mph 88 % 0.00 in
08:35 36.5 °F 33.3 °F 29.83 in North 1.0 mph 6.0 mph 88 % 0.00 in
08:40 36.6 °F 33.4 °F 29.83 in North 2.0 mph 6.0 mph 88 % 0.00 in
08:45 36.8 °F 34.0 °F 29.82 in Calm   3.0 mph 88 % 0.00 in
08:50 36.6 °F 33.4 °F 29.83 in North 2.0 mph 6.0 mph 88 % 0.00 in
08:55 36.8 °F 33.6 °F 29.82 in North 1.0 mph 5.0 mph 88 % 0.00 in
09:00 37.2 °F 34.0 °F 29.82 in Calm   3.0 mph 88 % 0.00 in
09:05 36.8 °F 33.6 °F 29.82 in North 1.0 mph 5.0 mph 88 % 0.00 in
09:10 37.2 °F 34.0 °F 29.82 in Calm   3.0 mph 88 % 0.00 in
09:15 37.5 °F 34.0 °F 29.82 in Calm   2.0 mph 88 % 0.00 in
09:20 37.2 °F 34.0 °F 29.82 in Calm   3.0 mph 88 % 0.00 in
09:25 37.5 °F 34.3 °F 29.83 in Calm   3.0 mph 88 % 0.00 in
09:30 38.0 °F 35.0 °F 29.83 in Calm   2.0 mph 88 % 0.00 in
09:35 37.5 °F 34.3 °F 29.83 in Calm   3.0 mph 88 % 0.00 in
09:40 38.0 °F 34.8 °F 29.83 in Calm   3.0 mph 88 % 0.00 in
09:45 38.9 °F 36.0 °F 29.81 in Calm   4.0 mph 88 % 0.00 in
09:50 38.0 °F 34.8 °F 29.83 in Calm   3.0 mph 88 % 0.00 in
09:55 38.9 °F 35.7 °F 29.82 in Calm   4.0 mph 88 % 0.00 in
10:00 39.8 °F 36.0 °F 29.82 in North 1.0 mph 3.0 mph 87 % 0.00 in
10:05 38.9 °F 35.7 °F 29.82 in Calm   4.0 mph 88 % 0.00 in
10:10 39.8 °F 36.2 °F 29.82 in Calm   3.0 mph 87 % 0.00 in
10:15 40.4 °F 37.0 °F 29.82 in Calm     86 % 0.00 in
10:20 39.8 °F 36.2 °F 29.82 in Calm   3.0 mph 87 % 0.00 in
10:25 40.4 °F 36.5 °F 29.83 in Calm   2.0 mph 86 % 0.00 in
10:30 40.9 °F 37.0 °F 29.82 in Calm     86 % 0.00 in
10:35 40.4 °F 36.5 °F 29.83 in Calm   2.0 mph 86 % 0.00 in
10:40 40.9 °F 37.0 °F 29.83 in Calm     86 % 0.00 in
10:45 41.5 °F 37.0 °F 29.82 in Calm     85 % 0.00 in
10:50 40.9 °F 37.0 °F 29.83 in Calm     86 % 0.00 in
10:55 41.5 °F 37.3 °F 29.82 in Calm     85 % 0.00 in
11:00 42.0 °F 38.0 °F 29.82 in North 1.0 mph 4.0 mph 84 % 0.00 in
11:05 41.5 °F 37.3 °F 29.82 in Calm     85 % 0.00 in
11:10 42.0 °F 37.5 °F 29.82 in Calm   4.0 mph 84 % 0.00 in
11:15 42.7 °F 38.0 °F 29.81 in NW 1.0 mph 5.0 mph 83 % 0.00 in
11:20 42.0 °F 37.5 °F 29.82 in Calm   4.0 mph 84 % 0.00 in
11:25 42.7 °F 37.9 °F 29.82 in North 1.0 mph 5.0 mph 83 % 0.00 in
11:30 43.8 °F 39.0 °F 29.82 in Calm   3.0 mph 83 % 0.00 in
11:35 42.7 °F 37.9 °F 29.82 in North 1.0 mph 5.0 mph 83 % 0.00 in
11:40 43.8 °F 39.0 °F 29.82 in Calm   3.0 mph 83 % 0.00 in
11:45 45.0 °F 40.0 °F 29.82 in Calm   5.0 mph 82 % 0.00 in
11:50 43.8 °F 39.0 °F 29.82 in Calm   3.0 mph 83 % 0.00 in
11:55 44.9 °F 39.7 °F 29.83 in North 1.0 mph 5.0 mph 82 % 0.00 in
12:00 46.1 °F 41.0 °F 29.82 in NW 2.0 mph 8.0 mph 81 % 0.00 in
12:05 44.9 °F 39.7 °F 29.83 in North 1.0 mph 5.0 mph 82 % 0.00 in
12:10 46.1 °F 40.6 °F 29.82 in North 1.0 mph 8.0 mph 81 % 0.00 in
12:15 47.2 °F 41.0 °F 29.82 in NW 2.0 mph 4.0 mph 79 % 0.00 in
12:20 46.1 °F 40.6 °F 29.82 in North 1.0 mph 8.0 mph 81 % 0.00 in
12:25 47.2 °F 41.0 °F 29.82 in NW 1.0 mph 8.0 mph 79 % 0.00 in
12:30 48.4 °F 42.0 °F 29.81 in NW 2.0 mph 5.0 mph 78 % 0.00 in
12:35 47.2 °F 41.0 °F 29.82 in NW 1.0 mph 8.0 mph 79 % 0.00 in
12:40 48.3 °F 41.8 °F 29.81 in NW 2.0 mph 5.0 mph 78 % 0.00 in
12:45 48.9 °F 42.0 °F 29.80 in NW 2.0 mph 6.0 mph 77 % 0.00 in
12:50 48.3 °F 41.8 °F 29.81 in NW 2.0 mph 5.0 mph 78 % 0.00 in
12:55 48.9 °F 42.0 °F 29.80 in North 2.0 mph 6.0 mph 77 % 0.00 in
13:00 49.7 °F 42.0 °F 29.79 in North 2.0 mph 6.0 mph 76 % 0.00 in
13:05 48.9 °F 42.0 °F 29.80 in North 2.0 mph 6.0 mph 77 % 0.00 in
13:10 49.7 °F 42.4 °F 29.80 in NW 2.0 mph 7.0 mph 76 % 0.00 in
13:15 49.9 °F 43.0 °F 29.78 in Calm   8.0 mph 77 % 0.00 in
13:20 49.7 °F 42.4 °F 29.80 in NW 2.0 mph 7.0 mph 76 % 0.00 in
13:25 49.8 °F 42.9 °F 29.78 in North 3.0 mph 8.0 mph 77 % 0.00 in
13:30 50.8 °F 44.0 °F 29.78 in NW 3.0 mph 6.0 mph 77 % 0.00 in
13:35 49.8 °F 42.9 °F 29.78 in North 3.0 mph 8.0 mph 77 % 0.00 in
13:40 50.7 °F 43.8 °F 29.78 in North 2.0 mph 10.0 mph 77 % 0.00 in
13:45 50.8 °F 44.0 °F 29.77 in NNW 4.0 mph 12.0 mph 76 % 0.00 in
13:50 50.7 °F 43.8 °F 29.78 in North 2.0 mph 10.0 mph 77 % 0.00 in
13:55 50.9 °F 43.6 °F 29.78 in NNW 3.0 mph 12.0 mph 76 % 0.00 in
14:00 51.9 °F 45.0 °F 29.77 in North 3.0 mph 9.0 mph 76 % 0.00 in
14:05 50.9 °F 43.6 °F 29.78 in NNW 3.0 mph 12.0 mph 76 % 0.00 in
14:10 51.7 °F 44.4 °F 29.77 in North 3.0 mph 9.0 mph 76 % 0.00 in
14:15 51.9 °F 44.0 °F 29.77 in North 2.0 mph 6.0 mph 75 % 0.00 in
14:20 51.7 °F 44.4 °F 29.77 in North 3.0 mph 9.0 mph 76 % 0.00 in
14:25 51.9 °F 44.2 °F 29.77 in North 2.0 mph 6.0 mph 75 % 0.00 in
14:30 51.9 °F 44.2 °F 29.77 in North 2.0 mph 6.0 mph 75 % 0.00 in
14:35 51.9 °F 44.2 °F 29.77 in North 2.0 mph 6.0 mph 75 % 0.00 in
14:39 52.5 °F 45.0 °F 29.77 in North 1.0 mph 6.0 mph 75 % 0.00 in
14:40 52.4 °F 45.0 °F 29.77 in North 2.0 mph 7.0 mph 76 % 0.00 in
14:45 52.2 °F 44.0 °F 29.77 in WNW 5.0 mph 10.0 mph 74 % 0.00 in
14:50 52.4 °F 45.0 °F 29.77 in North 2.0 mph 7.0 mph 76 % 0.00 in
14:55 52.3 °F 44.3 °F 29.77 in NW 3.0 mph 10.0 mph 74 % 0.00 in
15:00 52.3 °F 44.3 °F 29.77 in NW 3.0 mph 10.0 mph 74 % 0.00 in
15:05 52.3 °F 44.3 °F 29.77 in NW 3.0 mph 10.0 mph 74 % 0.00 in
15:10 51.8 °F 44.1 °F 29.77 in North 4.0 mph 11.0 mph 75 % 0.00 in
15:15 51.7 °F 44.0 °F 29.77 in North 3.0 mph 8.0 mph 75 % 0.00 in
15:20 51.8 °F 44.1 °F 29.77 in North 4.0 mph 11.0 mph 75 % 0.00 in
15:25 51.7 °F 44.0 °F 29.77 in North 2.0 mph 8.0 mph 75 % 0.00 in
15:30 51.2 °F 44.0 °F 29.77 in North 4.0 mph 10.0 mph 76 % 0.00 in
15:35 51.7 °F 44.0 °F 29.77 in North 2.0 mph 8.0 mph 75 % 0.00 in
15:40 51.2 °F 43.9 °F 29.77 in North 3.0 mph 10.0 mph 76 % 0.00 in
15:45 50.2 °F 44.0 °F 29.77 in NNW 5.0 mph 11.0 mph 78 % 0.00 in
15:50 51.2 °F 43.9 °F 29.77 in North 3.0 mph 10.0 mph 76 % 0.00 in
15:55 50.3 °F 43.7 °F 29.77 in North 4.0 mph 12.0 mph 78 % 0.00 in
16:00 49.9 °F 44.0 °F 29.77 in North 5.0 mph 8.0 mph 79 % 0.00 in
16:05 50.3 °F 43.7 °F 29.77 in North 4.0 mph 12.0 mph 78 % 0.00 in
16:10 49.9 °F 43.7 °F 29.78 in North 3.0 mph 8.0 mph 79 % 0.00 in
16:15 49.7 °F 43.0 °F 29.78 in North 1.0 mph 9.0 mph 79 % 0.00 in
16:20 49.9 °F 43.7 °F 29.78 in North 3.0 mph 8.0 mph 79 % 0.00 in
16:25 49.7 °F 43.5 °F 29.78 in North 3.0 mph 9.0 mph 79 % 0.00 in
16:30 49.7 °F 43.5 °F 29.78 in North 3.0 mph 9.0 mph 79 % 0.00 in
16:31 49.6 °F 43.0 °F 29.78 in North 2.0 mph 9.0 mph 79 % 0.00 in
16:35 49.7 °F 43.5 °F 29.78 in North 3.0 mph 9.0 mph 79 % 0.00 in
16:40 49.6 °F 43.4 °F 29.78 in North 3.0 mph 9.0 mph 79 % 0.00 in
16:45 49.6 °F 43.4 °F 29.78 in North 3.0 mph 9.0 mph 79 % 0.00 in
16:46 49.5 °F 43.0 °F 29.78 in North 1.0 mph 10.0 mph 79 % 0.00 in
16:50 49.6 °F 43.4 °F 29.78 in North 3.0 mph 9.0 mph 79 % 0.00 in
16:55 49.5 °F 43.3 °F 29.79 in North 2.0 mph 10.0 mph 79 % 0.00 in
17:00 49.5 °F 43.3 °F 29.79 in North 2.0 mph 10.0 mph 79 % 0.00 in
17:01 48.5 °F 43.0 °F 29.78 in North 2.0 mph 10.0 mph 80 % 0.00 in
17:05 49.5 °F 43.3 °F 29.79 in North 2.0 mph 10.0 mph 79 % 0.00 in
17:10 48.5 °F 42.6 °F 29.79 in North 3.0 mph 10.0 mph 80 % 0.00 in
17:15 48.5 °F 42.6 °F 29.79 in North 3.0 mph 10.0 mph 80 % 0.00 in
17:16 47.5 °F 42.0 °F 29.79 in NW 2.0 mph 11.0 mph 80 % 0.00 in
17:20 48.5 °F 42.6 °F 29.79 in North 3.0 mph 10.0 mph 80 % 0.00 in
17:25 47.5 °F 41.7 °F 29.79 in North 3.0 mph 12.0 mph 80 % 0.00 in
17:30 47.5 °F 41.7 °F 29.79 in North 3.0 mph 12.0 mph 80 % 0.00 in
17:31 46.5 °F 41.0 °F 29.79 in NW 3.0 mph 9.0 mph 80 % 0.00 in
17:35 47.5 °F 41.7 °F 29.79 in North 3.0 mph 12.0 mph 80 % 0.00 in
17:40 46.6 °F 40.8 °F 29.79 in NW 3.0 mph 9.0 mph 80 % 0.00 in
17:45 46.6 °F 40.8 °F 29.79 in NW 3.0 mph 9.0 mph 80 % 0.00 in
17:46 45.6 °F 40.0 °F 29.80 in North 5.0 mph 10.0 mph 81 % 0.00 in
17:50 46.6 °F 40.8 °F 29.79 in NW 3.0 mph 9.0 mph 80 % 0.00 in
17:55 45.7 °F 40.2 °F 29.80 in NW 4.0 mph 10.0 mph 81 % 0.00 in
18:00 45.7 °F 40.2 °F 29.80 in NW 4.0 mph 10.0 mph 81 % 0.00 in
18:02 44.9 °F 39.0 °F 29.80 in WNW 2.0 mph 10.0 mph 81 % 0.00 in
18:05 45.7 °F 40.2 °F 29.80 in NW 4.0 mph 10.0 mph 81 % 0.00 in
18:10 45.0 °F 39.5 °F 29.80 in North 3.0 mph 10.0 mph 81 % 0.00 in
18:15 45.0 °F 39.5 °F 29.80 in North 3.0 mph 10.0 mph 81 % 0.00 in
18:16 44.4 °F 39.0 °F 29.80 in NNW 3.0 mph 8.0 mph 81 % 0.00 in
18:20 45.0 °F 39.5 °F 29.80 in North 3.0 mph 10.0 mph 81 % 0.00 in
18:25 44.4 °F 39.0 °F 29.81 in North 3.0 mph 8.0 mph 81 % 0.00 in
18:30 44.4 °F 39.0 °F 29.81 in North 3.0 mph 8.0 mph 81 % 0.00 in
18:32 43.9 °F 39.0 °F 29.81 in WNW 2.0 mph 9.0 mph 82 % 0.00 in
18:35 44.4 °F 39.0 °F 29.81 in North 3.0 mph 8.0 mph 81 % 0.00 in
18:40 43.9 °F 38.8 °F 29.81 in NNW 3.0 mph 9.0 mph 82 % 0.00 in
18:45 43.9 °F 38.8 °F 29.81 in NNW 3.0 mph 9.0 mph 82 % 0.00 in
18:46 43.5 °F 38.0 °F 29.82 in NW 2.0 mph 5.0 mph 82 % 0.00 in
18:50 43.9 °F 38.8 °F 29.81 in NNW 3.0 mph 9.0 mph 82 % 0.00 in
18:55 43.5 °F 38.4 °F 29.82 in WNW 2.0 mph 5.0 mph 82 % 0.00 in
19:00 43.5 °F 38.4 °F 29.82 in WNW 2.0 mph 5.0 mph 82 % 0.00 in
19:01 42.9 °F 38.0 °F 29.82 in NW 4.0 mph 6.0 mph 82 % 0.00 in
19:05 43.5 °F 38.4 °F 29.82 in WNW 2.0 mph 5.0 mph 82 % 0.00 in
19:10 42.9 °F 37.8 °F 29.82 in NW 2.0 mph 6.0 mph 82 % 0.00 in
19:15 42.9 °F 37.8 °F 29.82 in NW 2.0 mph 6.0 mph 82 % 0.00 in
19:16 42.2 °F 37.0 °F 29.82 in NW 3.0 mph 8.0 mph 82 % 0.00 in
19:20 42.9 °F 37.8 °F 29.82 in NW 2.0 mph 6.0 mph 82 % 0.00 in
19:25 42.3 °F 37.2 °F 29.82 in NW 2.0 mph 8.0 mph 82 % 0.00 in
19:30 42.3 °F 37.2 °F 29.82 in NW 2.0 mph 8.0 mph 82 % 0.00 in
19:31 41.6 °F 37.0 °F 29.83 in NNW 3.0 mph 8.0 mph 83 % 0.00 in
19:35 42.3 °F 37.2 °F 29.82 in NW 2.0 mph 8.0 mph 82 % 0.00 in
19:40 41.6 °F 36.8 °F 29.83 in NW 2.0 mph 7.0 mph 83 % 0.00 in
19:45 41.6 °F 36.8 °F 29.83 in NW 2.0 mph 7.0 mph 83 % 0.00 in
19:46 40.9 °F 36.0 °F 29.84 in NW 4.0 mph 9.0 mph 83 % 0.00 in
19:50 41.6 °F 36.8 °F 29.83 in NW 2.0 mph 7.0 mph 83 % 0.00 in
19:55 41.0 °F 36.2 °F 29.84 in NW 3.0 mph 9.0 mph 83 % 0.00 in
20:00 41.0 °F 36.2 °F 29.84 in NW 3.0 mph 9.0 mph 83 % 0.00 in
20:01 40.1 °F 35.0 °F 29.84 in NW 3.0 mph 10.0 mph 83 % 0.00 in
20:05 41.0 °F 36.2 °F 29.84 in NW 3.0 mph 9.0 mph 83 % 0.00 in
20:10 40.1 °F 35.4 °F 29.84 in WNW 3.0 mph 10.0 mph 83 % 0.00 in
20:15 40.1 °F 35.4 °F 29.84 in WNW 3.0 mph 10.0 mph 83 % 0.00 in
20:16 39.4 °F 35.0 °F 29.85 in WNW 1.0 mph 11.0 mph 83 % 0.00 in
20:20 40.1 °F 35.4 °F 29.84 in WNW 3.0 mph 10.0 mph 83 % 0.00 in
20:25 39.5 °F 34.8 °F 29.85 in NW 3.0 mph 11.0 mph 83 % 0.00 in
20:30 39.5 °F 34.8 °F 29.85 in NW 3.0 mph 11.0 mph 83 % 0.00 in
20:31 38.3 °F 34.0 °F 29.86 in NNW 4.0 mph 11.0 mph 83 % 0.00 in
20:35 39.5 °F 34.8 °F 29.85 in NW 3.0 mph 11.0 mph 83 % 0.00 in
20:40 38.4 °F 33.7 °F 29.86 in NW 4.0 mph 14.0 mph 83 % 0.00 in
20:45 38.4 °F 33.7 °F 29.86 in NW 4.0 mph 14.0 mph 83 % 0.00 in
20:46 37.6 °F 33.0 °F 29.87 in NW 4.0 mph 10.0 mph 84 % 0.00 in
20:50 38.4 °F 33.7 °F 29.86 in NW 4.0 mph 14.0 mph 83 % 0.00 in
20:55 37.6 °F 33.2 °F 29.87 in NW 4.0 mph 11.0 mph 84 % 0.00 in
21:00 37.6 °F 33.2 °F 29.87 in NW 4.0 mph 11.0 mph 84 % 0.00 in
21:01 37.0 °F 33.0 °F 29.87 in NW 3.0 mph 12.0 mph 84 % 0.00 in
21:05 37.6 °F 33.2 °F 29.87 in NW 4.0 mph 11.0 mph 84 % 0.00 in
21:10 37.1 °F 32.7 °F 29.87 in NW 3.0 mph 11.0 mph 84 % 0.00 in
21:15 37.1 °F 32.7 °F 29.87 in NW 3.0 mph 11.0 mph 84 % 0.00 in
21:16 36.5 °F 32.0 °F 29.87 in NW 2.0 mph 11.0 mph 85 % 0.00 in
21:20 37.1 °F 32.7 °F 29.87 in NW 3.0 mph 11.0 mph 84 % 0.00 in
21:25 36.6 °F 32.2 °F 29.88 in NW 4.0 mph 11.0 mph 84 % 0.00 in
21:30 36.6 °F 32.2 °F 29.88 in NW 4.0 mph 11.0 mph 84 % 0.00 in
21:31 36.2 °F 32.0 °F 29.88 in NNW 5.0 mph 9.0 mph 85 % 0.00 in
21:35 36.6 °F 32.2 °F 29.88 in NW 4.0 mph 11.0 mph 84 % 0.00 in
21:40 36.3 °F 32.2 °F 29.88 in NW 4.0 mph 12.0 mph 85 % 0.00 in
21:45 36.3 °F 32.2 °F 29.88 in NW 4.0 mph 12.0 mph 85 % 0.00 in
21:46 36.1 °F 32.0 °F 29.88 in North 2.0 mph 8.0 mph 84 % 0.00 in
21:50 36.3 °F 32.2 °F 29.88 in NW 4.0 mph 12.0 mph 85 % 0.00 in
21:55 36.1 °F 31.8 °F 29.88 in NW 4.0 mph 9.0 mph 84 % 0.00 in
22:00 36.1 °F 31.8 °F 29.88 in NW 4.0 mph 9.0 mph 84 % 0.00 in
22:01 36.2 °F 32.0 °F 29.88 in NW 4.0 mph 10.0 mph 85 % 0.00 in
22:05 36.1 °F 31.8 °F 29.88 in NW 4.0 mph 9.0 mph 84 % 0.00 in
22:10 36.2 °F 31.8 °F 29.89 in NW 4.0 mph 13.0 mph 84 % 0.00 in
22:15 36.2 °F 31.8 °F 29.89 in NW 4.0 mph 13.0 mph 84 % 0.00 in
22:16 36.3 °F 32.0 °F 29.88 in WNW 3.0 mph 10.0 mph 84 % 0.00 in
22:20 36.2 °F 31.8 °F 29.89 in NW 4.0 mph 13.0 mph 84 % 0.00 in
22:25 36.3 °F 32.0 °F 29.89 in NW 3.0 mph 10.0 mph 84 % 0.00 in
22:30 36.3 °F 32.0 °F 29.89 in NW 3.0 mph 10.0 mph 84 % 0.00 in
22:31 36.3 °F 32.0 °F 29.89 in NW 4.0 mph 10.0 mph 84 % 0.00 in
22:35 36.3 °F 32.0 °F 29.89 in NW 3.0 mph 10.0 mph 84 % 0.00 in
22:40 36.4 °F 32.0 °F 29.89 in NW 4.0 mph 11.0 mph 84 % 0.00 in
22:45 36.4 °F 32.0 °F 29.89 in NW 4.0 mph 11.0 mph 84 % 0.00 in
22:46 35.9 °F 32.0 °F 29.90 in North 3.0 mph 11.0 mph 84 % 0.00 in
22:50 36.4 °F 32.0 °F 29.89 in NW 4.0 mph 11.0 mph 84 % 0.00 in
22:55 35.5 °F 31.1 °F 29.90 in NW 3.0 mph 4.0 mph 84 % 0.00 in
23:00 35.5 °F 31.1 °F 29.90 in NW 3.0 mph 4.0 mph 84 % 0.00 in
23:01 35.2 °F 31.0 °F 29.90 in NNW 6.0 mph 9.0 mph 84 % 0.00 in
23:05 35.5 °F 31.1 °F 29.90 in NW 3.0 mph 4.0 mph 84 % 0.00 in
23:10 35.3 °F 31.0 °F 29.90 in North 3.0 mph 9.0 mph 84 % 0.00 in
23:15 35.3 °F 31.0 °F 29.90 in North 3.0 mph 9.0 mph 84 % 0.00 in
23:18 34.8 °F 30.0 °F 29.91 in North 3.0 mph 10.0 mph 84 % 0.00 in
23:20 35.3 °F 31.0 °F 29.90 in North 3.0 mph 9.0 mph 84 % 0.00 in
23:25 34.8 °F 30.5 °F 29.91 in NNW 4.0 mph 11.0 mph 84 % 0.00 in
23:30 34.8 °F 30.5 °F 29.91 in NNW 4.0 mph 11.0 mph 84 % 0.00 in
23:32 34.7 °F 31.0 °F 29.91 in NW 3.0 mph 11.0 mph 85 % 0.00 in
23:35 34.8 °F 30.5 °F 29.91 in NNW 4.0 mph 11.0 mph 84 % 0.00 in
23:40 34.7 °F 30.7 °F 29.91 in WNW 4.0 mph 11.0 mph 85 % 0.00 in
23:45 34.7 °F 30.7 °F 29.91 in WNW 4.0 mph 11.0 mph 85 % 0.00 in
23:46 34.5 °F 31.0 °F 29.91 in NW 3.0 mph 10.0 mph 85 % 0.00 in
23:50 34.7 °F 30.7 °F 29.91 in WNW 4.0 mph 11.0 mph 85 % 0.00 in
Des Moines Weather and Climate
Compliments of Weather Underground - 4.5 mb

Script developed by  Jim McMurry - jmcmurry@mwt.net Adapted for the template by  Wim van der Kuil - Leuven-Template.eu

You find our weather info also at:

Weather Underground

Equipment we use:

Weather-station
Davis VP2 Plus

Weather-program
Davis Weatherlink.Com

Weather-server
iMac (Retina 4K, 21.5-inch, Late 2015)

Provider
Hostmonster.com

Davis VP2 Plus

Davis Weatherlink.Com

iMac (Retina 4K, 21.5-inch, Late 2015)

Hostmonster.com